Time;durP1;ratioP1;P1;durP2;ratioP2;P2;SDS_P1;SDS_P2;PMS_P1;PMS_P2;Temp;Humidity;BMP_temperature;BMP_pressure;BME280_temperature;BME280_humidity;BME280_pressure;Samples;Min_cycle;Max_cycle;Signal;HPM_P1;HPM_P2
2022/07/08 00:01:35;;;;;;;;;4.00;3.00;;;;;17.44;100.00;102621.75;5035971;28;45480;-81
2022/07/08 00:04:01;;;;;;;;;4.00;2.00;;;;;17.45;100.00;102626.25;5016474;28;45709;-81
2022/07/08 00:06:26;;;;;;;;;3.00;3.00;;;;;17.32;100.00;102609.56;5034752;28;45913;-82
2022/07/08 00:08:52;;;;;;;;;4.00;4.00;;;;;17.40;100.00;102623.22;5035127;28;45444;-83
2022/07/08 00:11:17;;;;;;;;;4.00;2.67;;;;;17.35;100.00;102613.81;5034224;28;45454;-83
2022/07/08 00:13:43;;;;;;;;;3.00;3.00;;;;;17.34;100.00;102620.44;5012019;28;45574;-82
2022/07/08 00:16:08;;;;;;;;;2.67;2.67;;;;;17.37;100.00;102631.97;5023983;28;45437;-82
2022/07/08 00:18:34;;;;;;;;;2.33;2.00;;;;;17.28;100.00;102619.34;5017852;28;45529;-81
2022/07/08 00:21:01;;;;;;;;;5.33;3.00;;;;;17.28;100.00;102619.34;5034462;28;45905;-81
2022/07/08 00:23:26;;;;;;;;;2.00;2.00;;;;;17.27;100.00;102617.63;5005999;28;46754;-84
2022/07/08 00:25:52;;;;;;;;;2.00;2.00;;;;;17.21;100.00;102615.69;5015106;28;45488;-81
2022/07/08 00:28:17;;;;;;;;;4.00;3.00;;;;;17.10;100.00;102600.53;5020542;28;45712;-76
2022/07/08 00:30:43;;;;;;;;;2.67;2.67;;;;;17.21;100.00;102629.56;5015311;28;45615;-76
2022/07/08 00:33:08;;;;;;;;;3.00;1.67;;;;;17.17;100.00;102622.72;5015226;28;48154;-78
2022/07/08 00:35:34;;;;;;;;;4.00;2.33;;;;;17.15;100.00;102617.38;5033729;28;45350;-75
2022/07/08 00:37:59;;;;;;;;;6.33;4.00;;;;;17.14;100.00;102612.91;5028115;28;45472;-75
2022/07/08 00:40:24;;;;;;;;;6.67;5.67;;;;;17.09;100.00;102610.72;5006803;28;46031;-82
2022/07/08 00:42:50;;;;;;;;;1.33;1.33;;;;;16.97;100.00;102598.53;5003434;28;46937;-82
2022/07/08 00:45:16;;;;;;;;;2.00;2.00;;;;;17.06;100.00;102619.47;5006209;28;45697;-82
2022/07/08 00:47:42;;;;;;;;;6.33;3.00;;;;;17.01;100.00;102616.47;5035427;28;45442;-83
2022/07/08 00:50:09;;;;;;;;;4.00;2.67;;;;;16.89;100.00;102599.56;5022015;28;47172;-76
2022/07/08 00:52:37;;;;;;;;;2.00;2.00;;;;;16.76;100.00;102583.69;5026732;28;45494;-75
2022/07/08 00:55:03;;;;;;;;;3.67;3.67;;;;;16.97;100.00;102617.94;5026161;28;45825;-78
2022/07/08 00:57:28;;;;;;;;;4.67;3.33;;;;;16.96;100.00;102632.88;5021747;28;44789;-76
2022/07/08 00:59:55;;;;;;;;;3.33;2.67;;;;;16.91;100.00;102632.63;5033287;28;45577;-75
2022/07/08 01:02:21;;;;;;;;;1.67;1.67;;;;;16.65;100.00;102589.81;5022988;28;45769;-75
2022/07/08 01:04:47;;;;;;;;;1.00;1.00;;;;;16.82;100.00;102626.34;5009661;28;45816;-76
2022/07/08 01:07:13;;;;;;;;;2.67;1.33;;;;;16.83;100.00;102638.31;5014726;28;45553;-77
2022/07/08 01:09:39;;;;;;;;;2.00;2.00;;;;;16.76;100.00;102621.63;4997890;28;45958;-76
2022/07/08 01:12:05;;;;;;;;;3.67;1.67;;;;;16.77;100.00;102632.50;5012301;28;47648;-75
2022/07/08 01:14:30;;;;;;;;;1.00;1.00;;;;;16.77;100.00;102632.50;5026629;28;45494;-77
2022/07/08 01:16:56;;;;;;;;;2.67;1.00;;;;;16.59;100.00;102618.34;5033795;28;45412;-80
2022/07/08 01:19:21;;;;;;;;;7.33;1.00;;;;;16.69;100.00;102637.34;5015415;28;45996;-82
2022/07/08 01:21:47;;;;;;;;;2.00;2.00;;;;;16.69;100.00;102649.31;5035930;28;45418;-82
2022/07/08 01:24:13;;;;;;;;;3.67;3.67;;;;;16.66;100.00;102637.75;5030177;28;45519;-82
2022/07/08 01:26:38;;;;;;;;;1.33;0.67;;;;;16.68;100.00;102653.13;5038667;28;45720;-82
2022/07/08 01:29:04;;;;;;;;;2.33;1.33;;;;;16.66;100.00;102654.38;5025820;28;45656;-83
2022/07/08 01:31:29;;;;;;;;;1.00;1.00;;;;;16.63;100.00;102658.44;4999536;28;46806;-82
2022/07/08 01:33:55;;;;;;;;;1.33;1.33;;;;;16.64;100.00;102657.34;5021580;28;45967;-80
2022/07/08 01:36:20;;;;;;;;;2.67;1.33;;;;;16.64;100.00;102659.28;5021252;28;45944;-82
2022/07/08 01:38:47;;;;;;;;;2.33;0.33;;;;;16.59;100.00;102676.50;5027019;28;45660;-83
2022/07/08 01:41:12;;;;;;;;;1.00;1.00;;;;;16.59;100.00;102670.97;5025454;28;45474;-81
2022/07/08 01:43:37;;;;;;;;;2.00;2.00;;;;;16.54;100.00;102668.81;5035411;28;45453;-81
2022/07/08 01:46:03;;;;;;;;;1.00;1.00;;;;;16.59;100.00;102670.97;5015352;28;45454;-81
2022/07/08 01:48:28;;;;;;;;;0.67;0.67;;;;;16.57;100.00;102668.41;5032508;28;47527;-79
2022/07/08 01:50:54;;;;;;;;;2.00;0.67;;;;;16.54;100.00;102668.81;5038931;28;46201;-81
2022/07/08 01:53:19;;;;;;;;;1.33;1.33;;;;;16.52;100.00;102661.75;5038732;28;45441;-81
2022/07/08 01:55:46;;;;;;;;;5.33;1.00;;;;;16.40;100.00;102645.69;5025561;28;45391;-80
2022/07/08 01:58:12;;;;;;;;;2.00;2.00;;;;;16.43;100.00;102658.28;5036383;28;45654;-80
2022/07/08 02:00:37;;;;;;;;;3.00;3.00;;;;;16.46;100.00;102657.88;5026231;28;46873;-83
2022/07/08 02:03:03;;;;;;;;;1.00;1.00;;;;;16.42;100.00;102651.00;5030930;28;45863;-81
2022/07/08 02:05:28;;;;;;;;;2.00;2.00;;;;;16.32;100.00;102651.38;5038327;28;45449;-82
2022/07/08 02:07:54;;;;;;;;;1.67;1.00;;;;;16.33;100.00;102655.88;5037832;28;45353;-81
2022/07/08 02:10:20;;;;;;;;;2.33;1.33;;;;;16.25;100.00;102653.22;5037124;28;46701;-81
2022/07/08 02:12:45;;;;;;;;;2.00;2.00;;;;;16.27;100.00;102670.50;5027905;28;45524;-80
2022/07/08 02:15:11;;;;;;;;;2.33;0.67;;;;;16.15;100.00;102649.94;5036179;28;45433;-81
2022/07/08 02:17:39;;;;;;;;;1.67;1.67;;;;;16.10;100.00;102656.06;5031259;28;45727;-81
2022/07/08 02:20:07;;;;;;;;;1.00;1.00;;;;;16.05;100.00;102659.44;5035168;28;45400;-81
2022/07/08 02:22:33;;;;;;;;;1.33;1.33;;;;;16.09;100.00;102675.66;5029102;28;45897;-82
2022/07/08 02:24:59;;;;;;;;;3.33;2.67;;;;;15.93;100.00;102644.44;5001554;28;45736;-82
2022/07/08 02:27:25;;;;;;;;;3.67;2.67;;;;;16.00;100.00;102661.97;5027439;28;45664;-82
2022/07/08 02:29:51;;;;;;;;;1.67;1.67;;;;;15.94;100.00;102659.97;5028953;28;46868;-82
2022/07/08 02:32:16;;;;;;;;;1.00;1.00;;;;;15.92;100.00;102659.31;5004792;28;45424;-81
2022/07/08 02:34:42;;;;;;;;;3.67;2.00;;;;;15.90;100.00;102661.44;5034344;28;45484;-82
2022/07/08 02:37:08;;;;;;;;;1.00;1.00;;;;;15.85;100.00;102659.28;5011657;28;46894;-82
2022/07/08 02:39:34;;;;;;;;;1.67;1.00;;;;;15.88;100.00;102674.59;5033414;28;46428;-81
2022/07/08 02:42:00;;;;;;;;;3.33;2.00;;;;;15.83;100.00;102661.34;5016204;28;45312;-80
2022/07/08 02:44:26;;;;;;;;;1.00;1.00;;;;;15.72;100.00;102642.50;5041268;28;45717;-80
2022/07/08 02:46:51;;;;;;;;;4.33;3.00;;;;;15.78;100.00;102652.81;5031626;28;45560;-81
2022/07/08 02:49:17;;;;;;;;;2.33;1.00;;;;;15.76;100.00;102663.16;5015170;28;47618;-81
2022/07/08 02:51:42;;;;;;;;;3.67;2.00;;;;;15.63;100.00;102644.53;5030152;28;45551;-80
2022/07/08 02:54:08;;;;;;;;;4.00;1.00;;;;;15.67;100.00;102642.22;5027266;28;45535;-78
2022/07/08 02:56:34;;;;;;;;;3.00;1.00;;;;;15.75;100.00;102660.59;5000265;28;45912;-77
2022/07/08 02:59:01;;;;;;;;;2.67;2.00;;;;;15.71;100.00;102651.84;5013046;28;46253;-82
2022/07/08 03:01:26;;;;;;;;;1.67;1.00;;;;;15.74;100.00;102662.50;5016048;28;45815;-81
2022/07/08 03:03:52;;;;;;;;;3.67;2.67;;;;;15.71;100.00;102669.28;5014550;28;45783;-81
2022/07/08 03:06:17;;;;;;;;;1.33;1.33;;;;;15.64;100.00;102660.06;5028304;28;45870;-77
2022/07/08 03:08:43;;;;;;;;;5.33;1.67;;;;;15.58;100.00;102647.00;5015428;28;47828;-82
2022/07/08 03:11:08;;;;;;;;;1.00;1.00;;;;;15.69;100.00;102668.63;5027762;28;45389;-80
2022/07/08 03:13:37;;;;;;;;;3.00;1.67;;;;;15.68;100.00;102677.97;5027691;28;45770;-81
2022/07/08 03:16:03;;;;;;;;;5.33;2.33;;;;;15.53;100.00;102655.03;4998428;28;46202;-82
2022/07/08 03:18:31;;;;;;;;;3.33;2.33;;;;;15.66;100.00;102682.84;5017020;28;45383;-82
2022/07/08 03:20:56;;;;;;;;;3.00;1.67;;;;;15.64;100.00;102673.91;5033321;28;45528;-81
2022/07/08 03:23:21;;;;;;;;;3.00;2.00;;;;;15.61;100.00;102685.34;5014897;28;45658;-81
2022/07/08 03:25:48;;;;;;;;;2.00;2.00;;;;;15.57;100.00;102689.56;5013391;28;45639;-81
2022/07/08 03:28:13;;;;;;;;;2.00;2.00;;;;;15.51;100.00;102687.56;5013108;28;46149;-81
2022/07/08 03:30:39;;;;;;;;;6.00;3.00;;;;;15.48;100.00;102687.97;4998133;28;45698;-81
2022/07/08 03:33:05;;;;;;;;;1.33;1.33;;;;;15.51;100.00;102701.41;5022228;28;45439;-81
2022/07/08 03:35:31;;;;;;;;;2.00;2.00;;;;;15.38;100.00;102679.13;5015381;28;45670;-82
2022/07/08 03:37:56;;;;;;;;;1.33;1.33;;;;;15.46;100.00;102687.28;5030645;28;45391;-82
2022/07/08 03:43:06;;;;;;;;;1.67;1.67;;;;;15.39;100.00;102702.94;5013968;28;45468;-82
2022/07/08 03:45:31;;;;;;;;;3.67;2.33;;;;;15.40;100.00;102708.25;5023180;28;45599;-82
2022/07/08 03:47:56;;;;;;;;;3.00;3.00;;;;;15.27;100.00;102683.22;5029975;28;45865;-84
2022/07/08 03:50:22;;;;;;;;;2.67;2.67;;;;;15.35;100.00;102702.47;5009391;28;45395;-82
2022/07/08 03:52:48;;;;;;;;;3.33;2.00;;;;;15.38;100.00;102706.75;5024058;28;45342;-82
2022/07/08 03:55:14;;;;;;;;;4.67;2.67;;;;;15.27;100.00;102688.75;5026115;28;45727;-82
2022/07/08 03:57:39;;;;;;;;;5.00;2.33;;;;;15.33;100.00;102705.44;5027003;28;46662;-81
2022/07/08 04:00:07;;;;;;;;;4.00;3.00;;;;;15.35;100.00;102710.75;5012456;28;45276;-80
2022/07/08 04:02:33;;;;;;;;;3.00;3.00;;;;;15.42;100.00;102725.53;5032954;28;45469;-81
2022/07/08 04:04:58;;;;;;;;;3.33;2.00;;;;;15.45;100.00;102714.09;5025646;28;46131;-81
2022/07/08 04:07:24;;;;;;;;;4.00;2.67;;;;;15.54;100.00;102710.16;5030845;28;45524;-81
2022/07/08 04:09:49;;;;;;;;;7.00;3.67;;;;;15.69;100.00;102715.66;5038524;28;45532;-80
2022/07/08 04:12:14;;;;;;;;;6.33;2.67;;;;;15.82;100.00;102711.34;5036951;28;45895;-81
2022/07/08 04:14:40;;;;;;;;;3.67;3.67;;;;;16.10;100.00;102710.59;5036456;28;45446;-81
2022/07/08 04:17:06;;;;;;;;;3.00;1.67;;;;;16.37;100.00;102706.16;5038047;28;45758;-80
2022/07/08 04:19:31;;;;;;;;;9.00;7.67;;;;;16.68;100.00;102703.00;5035870;28;45637;-82
2022/07/08 04:21:56;;;;;;;;;2.00;2.00;;;;;16.97;100.00;102690.00;5031873;28;45966;-81
2022/07/08 04:24:22;;;;;;;;;2.33;2.33;;;;;17.39;100.00;102693.63;5029385;28;45277;-81
2022/07/08 04:26:47;;;;;;;;;3.67;2.00;;;;;17.76;100.00;102694.19;5034636;28;45640;-79
2022/07/08 04:29:13;;;;;;;;;2.00;2.00;;;;;18.18;100.00;102685.75;5041449;28;45838;-84
2022/07/08 04:31:39;;;;;;;;;2.00;2.00;;;;;18.58;100.00;102684.88;5049772;28;45411;-79
2022/07/08 04:34:04;;;;;;;;;6.00;1.33;;;;;18.90;100.00;102671.19;5028743;28;45672;-78
2022/07/08 04:36:29;;;;;;;;;4.67;3.00;;;;;19.44;100.00;102689.41;5012264;28;47021;-78
2022/07/08 04:38:55;;;;;;;;;7.67;3.00;;;;;19.87;100.00;102679.56;5035565;28;45825;-78
2022/07/08 04:41:20;;;;;;;;;3.00;3.00;;;;;20.38;100.00;102686.91;5006429;28;45384;-79
2022/07/08 04:43:46;;;;;;;;;2.00;2.00;;;;;20.95;100.00;102685.97;5034857;28;45711;-78
2022/07/08 04:46:12;;;;;;;;;2.67;2.00;;;;;21.46;100.00;102687.47;5018422;28;47934;-79
2022/07/08 04:48:39;;;;;;;;;3.00;1.33;;;;;22.07;100.00;102700.66;5029631;28;45838;-78
2022/07/08 04:51:05;;;;;;;;;3.00;1.33;;;;;22.60;100.00;102690.53;5027135;28;45693;-78
2022/07/08 04:53:31;;;;;;;;;3.33;3.00;;;;;23.16;100.00;102696.59;5021805;28;45647;-80
2022/07/08 04:55:56;;;;;;;;;3.33;2.00;;;;;23.77;100.00;102697.88;5013671;28;46274;-81
2022/07/08 04:58:22;;;;;;;;;3.00;3.00;;;;;24.37;100.00;102692.81;5015287;28;45412;-80
2022/07/08 05:00:47;;;;;;;;;2.00;2.00;;;;;24.98;100.00;102698.53;5033312;28;45820;-81
2022/07/08 05:03:13;;;;;;;;;4.00;2.00;;;;;25.48;98.22;102698.63;5037021;28;45632;-80
2022/07/08 05:05:38;;;;;;;;;2.67;2.00;;;;;26.16;93.36;102712.34;5029512;28;45583;-81
2022/07/08 05:08:04;;;;;;;;;2.67;2.00;;;;;26.72;87.63;102700.72;5043049;28;45449;-79
2022/07/08 05:10:29;;;;;;;;;3.00;1.00;;;;;27.38;82.78;102703.09;5006876;28;45909;-79
2022/07/08 05:12:57;;;;;;;;;3.67;1.33;;;;;28.10;77.05;102699.59;5028406;28;45931;-79
2022/07/08 05:15:23;;;;;;;;;1.75;1.75;;;;;28.67;70.33;102708.97;5029125;28;45861;-80
2022/07/08 05:17:49;;;;;;;;;2.67;1.67;;;;;29.27;64.77;102714.75;5026896;28;46026;-80
2022/07/08 05:20:14;;;;;;;;;3.00;2.00;;;;;29.69;60.57;102716.25;5023499;28;45871;-80
2022/07/08 05:22:40;;;;;;;;;8.25;1.50;;;;;30.15;58.30;102717.09;5024332;28;45894;-80
2022/07/08 05:25:08;;;;;;;;;2.00;2.00;;;;;30.65;53.11;102711.34;5027435;28;45645;-80
2022/07/08 05:27:34;;;;;;;;;2.00;2.00;;;;;31.16;49.33;102719.28;5028034;28;45599;-79
2022/07/08 05:30:00;;;;;;;;;4.00;2.75;;;;;31.56;46.94;102707.75;5029142;28;46040;-80
2022/07/08 05:32:26;;;;;;;;;4.25;2.00;;;;;31.75;44.77;102708.59;5016995;28;46055;-80
2022/07/08 05:34:51;;;;;;;;;3.00;3.00;;;;;31.89;43.53;102702.16;5029026;28;45827;-80
2022/07/08 05:37:17;;;;;;;;;2.00;2.00;;;;;31.86;42.79;102703.63;5037600;28;45474;-80
2022/07/08 05:39:43;;;;;;;;;4.50;3.25;;;;;31.75;42.73;102702.91;5028659;28;45434;-79
2022/07/08 05:42:10;;;;;;;;;3.00;2.00;;;;;31.85;41.62;102719.78;5021125;28;45344;-80
2022/07/08 05:44:37;;;;;;;;;3.50;2.75;;;;;31.73;41.68;102708.06;5016702;28;45491;-73
2022/07/08 05:47:03;;;;;;;;;3.50;2.00;;;;;31.75;41.12;102711.44;5002999;28;45811;-72
2022/07/08 05:49:29;;;;;;;;;3.25;2.00;;;;;31.74;41.02;102708.91;5024908;28;45461;-73
2022/07/08 05:51:54;;;;;;;;;2.00;2.00;;;;;32.08;41.43;102707.81;5022235;28;45737;-73
2022/07/08 05:54:20;;;;;;;;;3.00;3.00;;;;;32.29;41.12;102705.50;5016922;28;46135;-73
2022/07/08 05:56:50;;;;;;;;;3.75;2.50;;;;;32.39;38.34;102711.00;5018786;28;45888;-86
2022/07/08 05:59:16;;;;;;;;;1.25;1.25;;;;;32.31;37.99;102714.59;5022436;28;45420;-85
2022/07/08 06:01:41;;;;;;;;;3.00;2.00;;;;;32.10;38.62;102697.00;5030193;28;46113;-84
2022/07/08 06:04:10;;;;;;;;;3.00;1.00;;;;;32.34;39.03;102679.88;5026762;28;46882;-82
2022/07/08 06:06:36;;;;;;;;;4.25;1.00;;;;;32.88;37.51;102689.69;5031638;28;45914;-83
2022/07/08 06:09:01;;;;;;;;;3.50;2.00;;;;;33.04;36.29;102658.94;5027851;28;45586;-85
2022/07/08 06:11:27;;;;;;;;;1.00;1.00;;;;;33.42;35.84;102686.31;5047200;28;45679;-80
2022/07/08 06:14:24;;;;;;;;;3.00;2.00;;;;;33.64;34.64;102715.97;5043961;28;45187;-91
2022/07/08 06:16:51;;;;;;;;;2.75;2.00;;;;;33.66;34.88;102693.75;5010132;28;45351;-79
2022/07/08 06:19:17;;;;;;;;;2.50;1.75;;;;;33.99;33.91;102711.47;5005195;28;45411;-78
2022/07/08 06:21:43;;;;;;;;;3.50;2.50;;;;;33.91;33.20;102712.22;5030126;28;45987;-80
2022/07/08 06:24:09;;;;;;;;;4.50;2.25;;;;;33.64;32.70;102687.50;5039024;28;46590;-83
2022/07/08 06:26:35;;;;;;;;;3.75;1.50;;;;;33.71;33.24;102711.50;5020391;28;45709;-81
2022/07/08 06:29:01;;;;;;;;;1.00;1.00;;;;;33.83;32.88;102690.22;5027459;28;45941;-80
2022/07/08 06:31:27;;;;;;;;;3.00;1.50;;;;;34.28;32.10;102707.34;5028757;28;45593;-80
2022/07/08 06:33:58;;;;;;;;;3.00;2.00;;;;;34.46;31.28;102702.63;5015010;28;45661;-80
2022/07/08 06:36:26;;;;;;;;;3.25;2.25;;;;;34.80;30.72;102729.66;5017453;28;45392;-80
2022/07/08 06:38:53;;;;;;;;;4.67;3.33;;;;;34.78;30.03;102732.84;5029831;28;45927;-79
2022/07/08 06:41:23;;;;;;;;;4.25;2.75;;;;;34.74;30.17;102736.66;5024220;28;45596;-86
2022/07/08 06:43:49;;;;;;;;;2.25;1.00;;;;;34.69;30.06;102734.78;5028625;28;46876;-86
2022/07/08 06:46:16;;;;;;;;;4.00;2.00;;;;;34.80;30.64;102729.66;5040911;28;45143;-86
2022/07/08 06:48:42;;;;;;;;;3.25;1.00;;;;;34.82;30.17;102741.56;5034238;28;44835;-83
2022/07/08 06:51:08;;;;;;;;;2.75;2.75;;;;;34.46;30.25;102692.06;5031911;28;45604;-83
2022/07/08 06:56:40;;;;;;;;;1.00;1.00;;;;;35.23;28.74;102711.88;5042827;28;45359;-81
2022/07/08 07:00:06;;;;;;;;;;;;;;;;;;;;;
2022/07/08 07:13:47;;;;;;;;;;;;;;;;;;;;;
2022/07/08 07:16:27;;;;;;;;;1.00;1.00;;;;;37.98;26.04;102712.25;4947722;28;45524;-85
2022/07/08 07:23:27;;;;;;;;;;;;;;;;;;;;;
2022/07/08 07:27:08;;;;;;;;;4.75;2.00;;;;;39.34;24.78;102728.94;4875198;29;69054;-81
2022/07/08 07:44:24;;;;;;;;;3.00;1.25;;;;;39.79;22.20;102730.78;4749748;29;45446;-82
2022/07/08 07:57:33;;;;;;;;;;;;;;;;;;;;;
2022/07/08 08:08:56;;;;;;;;;;;;;;;;;;;;;
2022/07/08 08:15:29;;;;;;;;;2.50;2.50;;;;;39.68;21.87;102703.78;4714922;29;45853;-84
2022/07/08 08:25:21;;;;;;;;;4.25;3.50;;;;;39.61;22.13;102724.47;4803796;29;45785;-85
2022/07/08 08:53:29;;;;;;;;;7.33;5.33;;;;;42.28;19.34;102702.56;4783128;29;45477;-81
2022/07/08 08:56:56;;;;;;;;;4.00;4.00;;;;;42.75;19.09;102700.56;4770655;29;46845;-82
2022/07/08 09:04:39;;;;;;;;;7.00;7.00;;;;;43.07;19.28;102680.91;4689533;30;45840;-81
2022/07/08 09:07:14;;;;;;;;;3.67;3.67;;;;;43.65;18.16;102676.81;4695956;30;45848;-84
2022/07/08 09:09:41;;;;;;;;;6.67;3.67;;;;;43.96;17.49;102679.66;4684078;30;47387;-82
2022/07/08 09:12:17;;;;;;;;;5.00;5.00;;;;;43.89;17.66;102663.09;4730243;29;45511;-81
2022/07/08 09:14:50;;;;;;;;;4.67;4.00;;;;;44.08;17.60;102662.88;4999664;28;45990;-83
2022/07/08 09:17:18;;;;;;;;;4.33;4.33;;;;;44.55;17.20;102672.03;5035347;28;45873;-82
2022/07/08 09:19:48;;;;;;;;;5.00;4.00;;;;;44.94;16.82;102664.94;5029629;28;45882;-80
2022/07/08 09:22:14;;;;;;;;;6.00;4.67;;;;;44.87;16.92;102630.13;5029705;28;45750;-81
2022/07/08 09:24:41;;;;;;;;;4.67;3.67;;;;;45.50;16.76;102659.94;5021887;28;45507;-82
2022/07/08 09:27:09;;;;;;;;;6.33;4.00;;;;;45.45;16.31;102638.00;5046398;28;45553;-82
2022/07/08 09:29:41;;;;;;;;;5.00;3.33;;;;;45.50;15.22;102647.50;5051465;28;45563;-83
2022/07/08 09:32:13;;;;;;;;;4.67;4.00;;;;;45.40;15.44;102663.59;5019045;28;45835;-82
2022/07/08 09:35:03;;;;;;;;;6.00;3.00;;;;;45.43;16.26;102662.81;5021496;28;45491;-85
2022/07/08 09:37:31;;;;;;;;;5.33;4.33;;;;;45.59;16.25;102659.53;5036977;28;45719;-82
2022/07/08 09:40:03;;;;;;;;;5.00;5.00;;;;;45.56;15.57;102658.31;5017979;28;48057;-83
2022/07/08 09:42:39;;;;;;;;;3.33;3.33;;;;;45.17;16.09;102644.44;5014795;28;45259;-82
2022/07/08 09:45:10;;;;;;;;;5.67;5.33;;;;;45.42;16.50;102624.28;5015775;28;45792;-83
2022/07/08 09:47:36;;;;;;;;;4.00;3.00;;;;;45.46;16.32;102615.63;5021880;28;45934;-82
2022/07/08 09:50:03;;;;;;;;;5.00;5.00;;;;;45.89;16.16;102620.75;5025868;28;46130;-84
2022/07/08 09:52:29;;;;;;;;;6.33;3.33;;;;;46.16;15.99;102639.44;5027461;28;45386;-83
2022/07/08 09:55:01;;;;;;;;;5.00;5.00;;;;;46.30;15.59;102629.13;5028743;28;45431;-81
2022/07/08 09:57:53;;;;;;;;;5.00;3.67;;;;;46.90;15.60;102646.94;5049087;28;45972;-84
2022/07/08 10:00:23;;;;;;;;;4.00;3.00;;;;;47.44;14.60;102650.56;5039127;28;45398;-85
2022/07/08 10:02:54;;;;;;;;;3.67;3.33;;;;;47.15;14.12;102650.66;5037692;28;45497;-82
2022/07/08 10:05:20;;;;;;;;;2.67;2.67;;;;;46.68;14.35;102632.44;5039297;28;46336;-82
2022/07/08 10:07:45;;;;;;;;;6.33;4.00;;;;;46.50;14.65;102644.88;5034017;28;45659;-82
2022/07/08 10:10:13;;;;;;;;;2.67;2.67;;;;;46.42;15.02;102637.41;5023062;28;45633;-82
2022/07/08 10:12:39;;;;;;;;;2.00;2.00;;;;;46.45;15.29;102627.88;5033452;28;45509;-82
2022/07/08 10:15:06;;;;;;;;;3.33;3.33;;;;;46.96;15.28;102630.78;5037336;28;45763;-82
2022/07/08 10:17:41;;;;;;;;;2.33;2.00;;;;;47.29;14.93;102632.31;5015512;28;46046;-80
2022/07/08 10:20:08;;;;;;;;;3.67;3.00;;;;;47.66;14.79;102645.47;5017976;28;48305;-81
2022/07/08 10:22:35;;;;;;;;;4.00;3.00;;;;;47.69;14.53;102626.38;5034069;28;45502;-81
2022/07/08 10:25:03;;;;;;;;;1.00;1.00;;;;;47.93;13.76;102630.41;5015934;28;45493;-83
2022/07/08 10:27:30;;;;;;;;;3.00;2.00;;;;;48.47;13.50;102627.13;5031364;28;45733;-81
2022/07/08 10:30:18;;;;;;;;;1.33;1.33;;;;;48.43;13.28;102641.69;5030490;28;46417;-84
2022/07/08 10:32:54;;;;;;;;;2.00;2.00;;;;;47.39;13.83;102619.03;5009290;28;45495;-81
2022/07/08 10:35:21;;;;;;;;;3.33;2.33;;;;;46.92;13.84;102630.75;5001999;28;45929;-80
2022/07/08 10:37:47;;;;;;;;;4.67;3.67;;;;;46.74;13.67;102632.84;4982390;28;45610;-82
2022/07/08 10:40:13;;;;;;;;;5.67;4.67;;;;;46.68;13.68;102621.69;5000115;28;46021;-82
2022/07/08 10:42:42;;;;;;;;;11.00;11.00;;;;;46.47;14.27;102633.25;5006779;28;45638;-78
2022/07/08 10:45:15;;;;;;;;;4.00;2.33;;;;;46.00;14.48;102634.03;4987984;28;45808;-78
2022/07/08 10:47:40;;;;;;;;;26.33;26.33;;;;;45.79;14.59;102628.16;5005556;28;45972;-81
2022/07/08 10:50:10;;;;;;;;;1.67;1.67;;;;;45.36;14.22;102605.59;4977074;28;46440;-82
2022/07/08 10:52:48;;;;;;;;;8.00;8.00;;;;;45.20;15.24;102634.09;5012864;28;45313;-82
2022/07/08 10:55:16;;;;;;;;;7.00;5.67;;;;;45.12;15.62;102639.88;5010673;28;45650;-81
2022/07/08 10:57:55;;;;;;;;;2.00;2.00;;;;;44.91;15.02;102636.78;4983453;28;46252;-80
2022/07/08 11:01:11;;;;;;;;;3.33;3.33;;;;;44.64;14.84;102637.00;5000047;28;45781;-82
2022/07/08 11:03:45;;;;;;;;;4.67;4.33;;;;;44.37;14.93;102598.72;5013172;28;45786;-81
2022/07/08 11:06:36;;;;;;;;;3.00;3.00;;;;;44.35;15.35;102628.06;5004192;28;45841;-81
2022/07/08 11:09:02;;;;;;;;;47.00;39.33;;;;;44.27;15.71;102608.13;4999775;28;45798;-80
2022/07/08 11:11:29;;;;;;;;;32.67;29.00;;;;;44.13;15.75;102623.28;4993447;28;46017;-82
2022/07/08 11:13:57;;;;;;;;;84.75;77.00;;;;;43.96;15.67;102634.25;5011007;28;45779;-81
2022/07/08 11:16:23;;;;;;;;;18.00;17.00;;;;;43.79;15.43;102617.50;5011656;28;45463;-81
2022/07/08 11:18:50;;;;;;;;;12.67;11.67;;;;;43.29;15.81;102601.19;5015677;28;45817;-80
2022/07/08 11:21:16;;;;;;;;;7.33;4.33;;;;;42.47;16.14;102577.66;4995544;28;47147;-83
2022/07/08 11:23:46;;;;;;;;;16.33;11.33;;;;;42.11;16.54;102612.41;5023467;28;45415;-82
2022/07/08 11:26:20;;;;;;;;;18.00;15.33;;;;;41.22;17.39;102591.22;5007552;28;45789;-84
2022/07/08 11:28:46;;;;;;;;;10.67;10.67;;;;;40.22;17.58;102587.53;4990221;28;45968;-83
2022/07/08 11:31:25;;;;;;;;;18.67;16.33;;;;;39.27;17.47;102576.56;4999334;28;47224;-82
2022/07/08 11:34:03;;;;;;;;;9.33;7.33;;;;;38.28;18.42;102576.59;5007897;28;45898;-82
2022/07/08 11:36:34;;;;;;;;;28.33;26.00;;;;;36.95;19.37;102603.00;5034515;28;45777;-81
2022/07/08 11:39:05;;;;;;;;;27.33;24.67;;;;;35.66;20.73;102579.00;5031156;28;45558;-82
2022/07/08 11:41:39;;;;;;;;;24.67;21.33;;;;;34.78;21.87;102589.50;5027093;28;45447;-79
2022/07/08 11:44:20;;;;;;;;;19.67;19.67;;;;;34.02;23.57;102601.81;5011865;28;45493;-84
2022/07/08 11:47:06;;;;;;;;;4.33;2.67;;;;;32.68;23.15;102565.91;5014321;28;45500;-85
2022/07/08 11:49:52;;;;;;;;;3.00;3.00;;;;;31.86;24.79;102607.97;5022411;28;45794;-82
2022/07/08 11:52:28;;;;;;;;;2.25;2.00;;;;;31.23;24.96;102614.88;5016360;28;46767;-82
2022/07/08 11:55:32;;;;;;;;;2.00;2.00;;;;;30.26;26.10;102571.53;5013561;28;45926;-83
2022/07/08 11:58:06;;;;;;;;;1.00;1.00;;;;;29.83;27.43;102582.69;5015044;28;45701;-85
2022/07/08 12:00:56;;;;;;;;;5.67;3.00;;;;;29.48;29.09;102602.44;5004672;28;45994;-84
2022/07/08 12:03:21;;;;;;;;;3.00;3.00;;;;;29.02;30.11;102582.88;4997531;28;48475;-83
2022/07/08 12:06:04;;;;;;;;;3.33;1.00;;;;;28.80;30.28;102603.84;5022242;28;45759;-83
2022/07/08 12:08:34;;;;;;;;;1.00;1.00;;;;;28.29;31.60;102568.13;5011929;28;45933;-85
2022/07/08 12:11:28;;;;;;;;;1.00;1.00;;;;;28.22;30.77;102601.44;5010073;28;45828;-85
2022/07/08 12:14:07;;;;;;;;;;;;;;;;;;;;;
2022/07/08 12:17:04;;;;;;;;;1.00;1.00;;;;;27.75;32.47;102594.91;5020811;28;73465;-82
2022/07/08 12:19:48;;;;;;;;;2.00;1.00;;;;;27.17;33.12;102575.38;5007038;28;45716;-84
2022/07/08 12:22:17;;;;;;;;;3.67;2.67;;;;;26.78;34.15;102550.41;5018759;28;45771;-80
2022/07/08 12:24:55;;;;;;;;;4.33;2.33;;;;;26.86;35.36;102597.78;5011996;28;47628;-81
2022/07/08 12:27:30;;;;;;;;;2.00;2.00;;;;;26.63;36.13;102567.22;5004716;28;45759;-81
2022/07/08 12:30:28;;;;;;;;;3.00;3.00;;;;;26.55;36.57;102568.59;5023865;28;45715;-82
2022/07/08 12:33:04;;;;;;;;;3.00;1.00;;;;;26.45;37.43;102554.47;5028604;28;45590;-82
2022/07/08 12:35:37;;;;;;;;;1.67;1.67;;;;;26.66;38.30;102583.56;5018399;28;46214;-81
2022/07/08 12:38:47;;;;;;;;;1.00;1.00;;;;;26.28;39.50;102537.78;5037387;28;45486;-80
2022/07/08 12:41:38;;;;;;;;;1.00;1.00;;;;;26.57;39.74;102569.16;5021288;28;45509;-81
2022/07/08 12:44:49;;;;;;;;;;;;;;;;;;;;;
2022/07/08 12:50:19;;;;;;;;;2.00;1.00;;;;;26.21;39.97;102527.63;5004046;28;45910;-84
2022/07/08 12:52:59;;;;;;;;;1.00;1.00;;;;;26.40;38.37;102569.34;5006407;28;45951;-83
2022/07/08 12:56:03;;;;;;;;;2.00;2.00;;;;;26.16;38.75;102547.25;5018875;28;45508;-83
2022/07/08 12:58:38;;;;;;;;;2.33;1.00;;;;;26.27;38.89;102561.38;4991033;28;46600;-84
2022/07/08 13:01:13;;;;;;;;;1.00;1.00;;;;;26.04;38.79;102526.94;4998770;28;45967;-84
2022/07/08 13:04:08;;;;;;;;;1.00;1.00;;;;;26.23;38.77;102570.38;5004446;28;45588;-85
2022/07/08 13:06:38;;;;;;;;;1.00;1.00;;;;;26.20;38.92;102567.25;5000319;28;45615;-81
2022/07/08 13:09:31;;;;;;;;;0.33;0.33;;;;;25.86;38.80;102512.16;5017173;28;46688;-82
2022/07/08 13:12:17;;;;;;;;;0.00;0.00;;;;;25.84;39.04;102522.81;5020321;28;45748;-80
2022/07/08 13:14:58;;;;;;;;;0.00;0.00;;;;;25.88;39.21;102514.69;5013054;28;45964;-83
2022/07/08 13:17:35;;;;;;;;;1.00;1.00;;;;;26.07;39.58;102551.69;5006863;28;45451;-83
2022/07/08 13:20:12;;;;;;;;;1.00;1.00;;;;;25.88;40.10;102523.97;5022092;28;46353;-83
2022/07/08 13:22:39;;;;;;;;;1.00;1.00;;;;;25.87;40.53;102527.91;5046706;28;45806;-83
2022/07/08 13:25:13;;;;;;;;;2.00;2.00;;;;;25.99;41.35;102536.19;5045517;28;45429;-83